createdAt,value
2019-05-04T00:00:07.621Z,87.69
2019-05-04T00:00:48.028Z,87.02
2019-05-04T00:01:28.656Z,87.69
2019-05-04T00:02:09.194Z,88.36
2019-05-04T00:02:49.968Z,86.83
2019-05-04T00:03:30.382Z,87.02
2019-05-04T00:04:10.795Z,87.79
2019-05-04T00:04:51.676Z,87.98
2019-05-04T00:05:31.941Z,89.69
2019-05-04T00:06:58.211Z,90.79
2019-05-04T00:07:38.973Z,90.6
2019-05-04T00:08:19.623Z,90.5
2019-05-04T00:15:14.461Z,94.93
2019-05-04T00:17:30.889Z,97.55
2019-05-04T00:18:20.689Z,98.22
2019-05-04T00:19:10.988Z,99.27
2019-05-04T00:19:54.855Z,99.99
2019-05-04T00:20:34.697Z,99.99
2019-05-04T00:21:15.161Z,99.99
2019-05-04T00:22:36.249Z,99.99
2019-05-04T00:23:16.644Z,99.99
2019-05-04T00:23:57.130Z,99.99
2019-05-04T00:24:38.034Z,99.99
2019-05-04T00:29:17.414Z,99.99
2019-05-04T00:29:56.350Z,99.99
2019-05-04T00:30:38.634Z,99.99
2019-05-04T00:31:20.698Z,99.99
2019-05-04T00:32:01.130Z,99.99
2019-05-04T00:32:42.337Z,99.99
2019-05-04T00:33:24.815Z,99.99
2019-05-04T00:34:04.734Z,99.99
2019-05-04T00:34:44.959Z,99.99
2019-05-04T00:35:25.227Z,99.99
2019-05-04T00:36:05.396Z,99.99
2019-05-04T00:36:46.424Z,99.99
2019-05-04T00:37:28.411Z,99.99
2019-05-04T00:38:09.596Z,99.99
2019-05-04T00:38:49.985Z,99.99
2019-05-04T00:39:30.414Z,99.99
2019-05-04T00:40:14.382Z,99.99
2019-05-04T00:40:53.029Z,99.99
2019-05-04T00:42:57.252Z,99.99
2019-05-04T00:43:48.125Z,99.99
2019-05-04T00:44:44.885Z,99.99
2019-05-04T00:45:28.224Z,99.99
2019-05-04T00:46:08.850Z,99.99
2019-05-04T00:46:49.418Z,99.99
2019-05-04T00:47:30.059Z,99.99
2019-05-04T00:48:10.712Z,99.99
2019-05-04T00:48:51.132Z,99.99
2019-05-04T00:49:31.542Z,99.99
2019-05-04T00:50:12.281Z,99.99
2019-05-04T00:50:54.914Z,99.99
2019-05-04T00:51:35.080Z,99.99
2019-05-04T00:52:54.796Z,99.99
2019-05-04T00:53:35.572Z,99.99
2019-05-04T00:54:16.325Z,99.99
2019-05-04T00:54:56.764Z,99.99
2019-05-04T00:55:37.193Z,99.99
2019-05-04T00:56:18.182Z,99.99
2019-05-04T00:56:58.884Z,99.99
2019-05-04T00:57:39.436Z,99.99
2019-05-04T00:58:19.933Z,99.99
2019-05-04T00:59:00.570Z,99.99
2019-05-04T01:00:21.355Z,99.99
2019-05-04T01:01:04.486Z,99.99
2019-05-04T01:01:44.582Z,99.99
2019-05-04T01:03:59.179Z,99.99
2019-05-04T01:04:40.141Z,99.99
2019-05-04T01:05:20.392Z,99.99
2019-05-04T01:06:00.786Z,99.99
2019-05-04T01:06:44.893Z,99.99
2019-05-04T01:07:25.032Z,99.99
2019-05-04T01:08:05.392Z,99.99
2019-05-04T01:08:46.261Z,99.99
2019-05-04T01:09:26.677Z,99.99
2019-05-04T01:10:47.686Z,99.99
2019-05-04T01:11:28.142Z,99.99
2019-05-04T01:12:10.032Z,99.99
2019-05-04T01:13:30.786Z,99.99
2019-05-04T01:14:11.203Z,99.99
2019-05-04T01:14:51.739Z,99.99
2019-05-04T01:15:32.143Z,99.99
2019-05-04T01:16:14.439Z,99.99
2019-05-04T01:16:56.939Z,99.99
2019-05-04T01:18:17.742Z,99.99
2019-05-04T01:18:58.228Z,99.99
2019-05-04T01:19:38.623Z,99.99
2019-05-04T01:20:59.627Z,99.99
2019-05-04T01:21:40.022Z,99.99
2019-05-04T01:22:20.412Z,99.99
2019-05-04T01:23:00.891Z,99.99
2019-05-04T01:23:41.300Z,99.99
2019-05-04T01:24:25.256Z,99.99
2019-05-04T01:25:05.019Z,99.99
2019-05-04T01:25:45.506Z,99.99
2019-05-04T01:26:27.170Z,99.99
2019-05-04T01:27:09.868Z,99.99
2019-05-04T01:28:34.938Z,99.99
2019-05-04T01:29:15.141Z,99.99
2019-05-04T01:29:55.438Z,99.99
2019-05-04T01:30:35.806Z,99.99
2019-05-04T01:31:16.345Z,99.99
2019-05-04T01:31:56.599Z,99.99
2019-05-04T01:33:20.995Z,99.99
2019-05-04T01:34:04.961Z,99.99
2019-05-04T01:34:45.332Z,99.99
2019-05-04T01:35:25.621Z,99.99
2019-05-04T01:36:06.576Z,99.99
2019-05-04T01:36:46.876Z,99.99
2019-05-04T01:37:31.838Z,99.99
2019-05-04T01:38:51.608Z,99.99
2019-05-04T01:39:35.442Z,99.99
2019-05-04T01:40:16.108Z,99.99
2019-05-04T01:41:38.503Z,99.99
2019-05-04T01:42:18.817Z,99.99
2019-05-04T01:43:00.332Z,99.99
2019-05-04T01:43:40.668Z,99.99
2019-05-04T01:44:21.202Z,99.99
2019-05-04T01:45:01.490Z,99.99
2019-05-04T01:45:42.196Z,99.99
2019-05-04T01:46:25.568Z,99.99
2019-05-04T01:47:05.224Z,99.99
2019-05-04T01:47:45.565Z,99.99
2019-05-04T01:49:08.132Z,99.99
2019-05-04T01:49:49.426Z,99.99
2019-05-04T01:50:29.885Z,99.99
2019-05-04T01:51:10.738Z,99.99
2019-05-04T01:51:51.217Z,99.99
2019-05-04T01:52:31.740Z,99.99
2019-05-04T01:53:12.082Z,99.99
2019-05-04T01:53:54.336Z,99.99
2019-05-04T01:54:32.747Z,99.99
2019-05-04T01:55:15.142Z,99.99
2019-05-04T01:55:55.423Z,99.99
2019-05-04T01:56:35.848Z,99.99
2019-05-04T01:57:18.387Z,99.99
2019-05-04T01:57:58.823Z,99.99
2019-05-04T01:58:39.318Z,99.99
2019-05-04T02:00:00.019Z,99.99
2019-05-04T02:00:40.881Z,99.99
2019-05-04T02:01:21.177Z,99.99
2019-05-04T02:02:01.560Z,99.99
2019-05-04T02:02:41.944Z,99.99
2019-05-04T02:03:22.322Z,99.99
2019-05-04T02:04:02.684Z,99.99
2019-05-04T02:04:44.768Z,99.99
2019-05-04T02:05:25.375Z,99.99
2019-05-04T02:06:06.563Z,99.99
2019-05-04T02:06:48.433Z,99.99
2019-05-04T02:07:41.728Z,99.99
2019-05-04T02:08:09.256Z,99.99
2019-05-04T02:08:51.639Z,99.99
2019-05-04T02:09:35.409Z,99.99
2019-05-04T02:10:15.578Z,99.99
2019-05-04T02:10:54.716Z,99.99
2019-05-04T02:11:35.329Z,99.99
2019-05-04T02:12:15.516Z,99.99
2019-05-04T02:12:57.632Z,99.99
2019-05-04T02:13:38.526Z,99.99
2019-05-04T02:14:59.292Z,99.99
2019-05-04T02:15:41.221Z,99.99
2019-05-04T02:16:21.589Z,99.99
2019-05-04T02:17:02.126Z,99.99
2019-05-04T02:17:44.527Z,99.99
2019-05-04T02:18:24.719Z,99.99
2019-05-04T02:19:04.892Z,99.99
2019-05-04T02:19:45.229Z,99.99
2019-05-04T02:20:25.830Z,99.99
2019-05-04T02:21:06.538Z,99.99
2019-05-04T02:22:30.001Z,99.99
2019-05-04T02:23:12.158Z,99.99
2019-05-04T02:23:54.430Z,99.99
2019-05-04T02:24:35.438Z,99.99
2019-05-04T02:25:18.135Z,99.99
2019-05-04T02:25:59.155Z,99.99
2019-05-04T02:26:39.532Z,99.99
2019-05-04T02:27:21.845Z,99.99
2019-05-04T02:28:02.556Z,99.99
2019-05-04T02:28:45.081Z,99.99
2019-05-04T02:29:25.119Z,99.99
2019-05-04T02:30:06.309Z,99.99
2019-05-04T02:30:46.314Z,99.99
2019-05-04T02:31:26.564Z,99.99
2019-05-04T02:33:46.535Z,99.99
2019-05-04T02:34:28.028Z,99.99
2019-05-04T02:35:09.095Z,99.99
2019-05-04T02:35:50.104Z,99.99
2019-05-04T02:36:31.548Z,99.99
2019-05-04T02:38:36.389Z,99.99
2019-05-04T02:39:19.622Z,99.99
2019-05-04T02:40:00.101Z,99.99
2019-05-04T02:40:51.010Z,99.99
2019-05-04T02:41:21.804Z,99.99
2019-05-04T02:42:02.489Z,99.99
2019-05-04T02:42:45.735Z,99.99
2019-05-04T02:43:25.617Z,99.99
2019-05-04T02:44:06.188Z,99.99
2019-05-04T02:45:26.788Z,99.99
2019-05-04T02:46:07.426Z,99.99
2019-05-04T02:46:47.608Z,99.99
2019-05-04T02:48:08.372Z,99.99
2019-05-04T02:48:48.768Z,99.99
2019-05-04T02:49:29.599Z,99.99
2019-05-04T02:50:10.133Z,99.99
2019-05-04T02:50:51.097Z,99.99
2019-05-04T02:51:31.981Z,99.99
2019-05-04T02:52:15.267Z,99.99
2019-05-04T02:52:56.060Z,99.99
2019-05-04T02:55:19.990Z,99.99
2019-05-04T02:56:16.655Z,99.99
2019-05-04T02:57:05.582Z,99.99
2019-05-04T02:59:48.479Z,99.99
2019-05-04T03:02:35.579Z,99.99
2019-05-04T03:03:19.981Z,99.99
2019-05-04T03:04:08.944Z,99.99
2019-05-04T03:04:59.657Z,99.99
2019-05-04T03:07:29.185Z,99.99
2019-05-04T03:08:28.444Z,99.99
2019-05-04T03:09:07.721Z,99.99
2019-05-04T03:10:00.682Z,99.99
2019-05-04T03:11:57.352Z,99.99
2019-05-04T03:12:47.961Z,99.99
2019-05-04T03:13:41.383Z,99.99
2019-05-04T03:16:10.537Z,99.99
2019-05-04T03:16:55.868Z,99.99
2019-05-04T03:17:35.562Z,99.99
2019-05-04T03:18:15.978Z,99.99
2019-05-04T03:18:56.284Z,99.99
2019-05-04T03:19:37.717Z,99.99
2019-05-04T03:21:01.635Z,99.99
2019-05-04T03:21:45.988Z,99.99
2019-05-04T03:22:26.536Z,99.99
2019-05-04T03:23:47.339Z,99.99
2019-05-04T03:24:31.519Z,99.99
2019-05-04T03:25:15.754Z,99.99
2019-05-04T03:26:36.322Z,99.99
2019-05-04T03:27:16.823Z,99.99
2019-05-04T03:27:58.766Z,99.99
2019-05-04T03:28:38.974Z,99.99
2019-05-04T03:29:19.284Z,99.99
2019-05-04T03:30:01.573Z,99.99
2019-05-04T03:31:26.987Z,99.99
2019-05-04T03:32:07.812Z,99.99
2019-05-04T03:32:47.838Z,99.99
2019-05-04T03:33:28.549Z,99.99
2019-05-04T03:34:08.321Z,99.99
2019-05-04T03:35:08.115Z,99.99
2019-05-04T03:35:44.020Z,99.99
2019-05-04T03:36:16.608Z,99.99
2019-05-04T03:36:52.504Z,99.99
2019-05-04T03:37:35.649Z,99.99
2019-05-04T03:38:16.947Z,99.99
2019-05-04T03:38:59.036Z,99.99
2019-05-04T03:39:39.254Z,99.99
2019-05-04T03:40:19.632Z,99.99
2019-05-04T03:41:01.631Z,99.99
2019-05-04T03:41:45.054Z,99.99
2019-05-04T03:42:26.350Z,99.99
2019-05-04T03:43:09.100Z,99.99
2019-05-04T03:43:45.369Z,99.99
2019-05-04T03:44:25.813Z,99.99
2019-05-04T03:45:06.172Z,99.99
2019-05-04T03:45:46.682Z,99.99
2019-05-04T03:46:27.314Z,99.99
2019-05-04T03:47:08.190Z,99.99
2019-05-04T03:47:48.571Z,99.99
2019-05-04T03:48:30.707Z,99.99
2019-05-04T03:49:15.365Z,99.99
2019-05-04T03:49:55.130Z,99.99
2019-05-04T03:50:37.261Z,99.99
2019-05-04T03:51:17.634Z,99.99
2019-05-04T03:51:58.000Z,99.99
2019-05-04T03:52:39.402Z,99.99
2019-05-04T03:53:20.008Z,99.99
2019-05-04T03:54:02.093Z,99.99
2019-05-04T03:54:45.175Z,99.99
2019-05-04T03:55:26.249Z,99.99
2019-05-04T03:56:51.730Z,99.99
2019-05-04T03:57:32.111Z,99.99
2019-05-04T03:58:15.266Z,99.99
2019-05-04T03:59:35.995Z,99.99
2019-05-04T04:00:17.792Z,99.99
2019-05-04T04:01:01.054Z,99.99
2019-05-04T04:01:44.905Z,99.99
2019-05-04T04:02:25.924Z,99.99
2019-05-04T04:03:07.573Z,99.99
2019-05-04T04:03:49.821Z,99.99
2019-05-04T04:04:30.964Z,99.99
2019-05-04T04:05:11.340Z,99.99
2019-05-04T04:05:51.738Z,99.99
2019-05-04T04:06:32.117Z,99.99
2019-05-04T04:07:15.274Z,99.99
2019-05-04T04:07:57.646Z,99.99
2019-05-04T04:09:19.636Z,99.99
2019-05-04T04:09:59.546Z,99.99
2019-05-04T04:10:45.817Z,99.99
2019-05-04T04:12:05.425Z,99.99
2019-05-04T04:12:46.461Z,99.99
2019-05-04T04:13:27.196Z,99.99
2019-05-04T04:14:07.497Z,99.99
2019-05-04T04:14:47.872Z,99.99
2019-05-04T04:15:28.254Z,99.99
2019-05-04T04:16:08.682Z,99.99
2019-05-04T04:16:49.103Z,99.99
2019-05-04T04:17:29.791Z,99.99
2019-05-04T04:18:10.197Z,99.99
2019-05-04T04:19:31.169Z,99.99
2019-05-04T04:20:12.065Z,99.99
2019-05-04T04:20:55.156Z,99.99
2019-05-04T04:21:36.177Z,99.99
2019-05-04T04:22:15.911Z,99.99
2019-05-04T04:22:57.632Z,99.99
2019-05-04T04:23:37.991Z,99.99
2019-05-04T04:24:22.190Z,99.99
2019-05-04T04:25:05.004Z,99.99
2019-05-04T04:25:45.153Z,99.99
2019-05-04T04:27:05.349Z,99.99
2019-05-04T05:06:40.425Z,99.99
2019-05-04T05:07:25.263Z,99.99
2019-05-04T05:08:04.936Z,99.99
2019-05-04T05:08:44.771Z,99.99
2019-05-04T05:10:57.250Z,99.99
2019-05-04T05:11:37.546Z,99.99
2019-05-04T05:12:17.948Z,99.99
2019-05-04T05:12:58.361Z,99.99
2019-05-04T05:13:38.683Z,99.99
2019-05-04T05:14:19.054Z,99.99
2019-05-04T05:14:59.463Z,99.99
2019-05-04T05:15:39.886Z,99.99
2019-05-04T05:16:20.292Z,99.99
2019-05-04T05:17:00.607Z,99.99
2019-05-04T05:17:40.995Z,99.99
2019-05-04T05:19:04.696Z,99.99
2019-05-04T05:19:45.249Z,99.99
2019-05-04T05:22:24.853Z,99.99
2019-05-04T05:26:09.842Z,99.99
2019-05-04T05:27:05.298Z,99.99
2019-05-04T05:30:25.923Z,99.99
2019-05-04T05:31:06.130Z,99.99
2019-05-04T05:31:46.733Z,99.99
2019-05-04T05:32:27.916Z,99.99
2019-05-04T05:33:08.285Z,99.99
2019-05-04T05:34:29.147Z,99.99
2019-05-04T05:35:09.520Z,99.99
2019-05-04T05:35:49.909Z,99.99
2019-05-04T05:36:30.290Z,99.99
2019-05-04T05:37:10.669Z,99.99
2019-05-04T05:37:51.020Z,99.99
2019-05-04T05:38:31.438Z,99.99
2019-05-04T05:39:11.815Z,99.99
2019-05-04T05:39:58.226Z,99.99
2019-05-04T05:40:34.839Z,99.99
2019-05-04T05:41:17.043Z,99.99
2019-05-04T05:41:55.573Z,99.99
2019-05-04T05:42:45.366Z,99.99
2019-05-04T05:43:19.671Z,99.99
2019-05-04T05:48:43.984Z,99.99
2019-05-04T05:53:20.281Z,99.99
2019-05-04T05:55:17.512Z,99.99
2019-05-04T05:56:01.657Z,99.99
2019-05-04T05:58:08.732Z,99.99
2019-05-04T05:59:05.275Z,99.99
2019-05-04T06:02:17.520Z,99.99
2019-05-04T06:03:07.637Z,99.99
2019-05-04T06:04:11.674Z,99.99
2019-05-04T06:04:58.147Z,99.99
2019-05-04T06:07:33.993Z,99.99
2019-05-04T06:09:39.143Z,99.99
2019-05-04T06:10:32.333Z,99.99
2019-05-04T06:11:24.745Z,99.99
2019-05-04T06:12:20.262Z,99.99
2019-05-04T06:13:17.203Z,99.99
2019-05-04T06:14:04.691Z,99.99
2019-05-04T06:15:05.443Z,99.99
2019-05-04T06:15:55.568Z,99.99
2019-05-04T06:16:44.578Z,99.99
2019-05-04T06:17:22.062Z,99.99
2019-05-04T06:18:04.267Z,99.99
2019-05-04T06:18:45.002Z,99.99
2019-05-04T06:19:29.529Z,99.99
2019-05-04T06:20:13.855Z,99.99
2019-05-04T06:20:54.556Z,99.99
2019-05-04T06:21:38.610Z,99.97
2019-05-04T06:22:24.092Z,99.99
2019-05-04T06:23:09.267Z,99.99
2019-05-04T06:23:59.506Z,99.99
2019-05-04T06:24:42.621Z,99.99
2019-05-04T06:25:26.125Z,99.88
2019-05-04T06:26:07.782Z,99.69
2019-05-04T06:26:51.055Z,99.4
2019-05-04T06:27:35.083Z,99.99
2019-05-04T06:28:19.745Z,99.78
2019-05-04T06:29:04.902Z,99.88
2019-05-04T06:29:44.486Z,99.99
2019-05-04T06:30:33.896Z,99.21
2019-05-04T06:31:18.315Z,99.97
2019-05-04T06:32:02.221Z,99.99
2019-05-04T06:32:44.760Z,98.64
2019-05-04T06:33:24.779Z,98.93
2019-05-04T06:34:05.522Z,98.93
2019-05-04T06:34:46.160Z,98.5
2019-05-04T06:35:26.710Z,97.36
2019-05-04T06:36:07.653Z,96.98
2019-05-04T06:36:49.223Z,97.03
2019-05-04T06:37:29.075Z,97.78
2019-05-04T06:38:11.629Z,98.93
2019-05-04T06:38:50.795Z,98.79
2019-05-04T06:39:34.456Z,97.83
2019-05-04T06:40:16.347Z,96.5
2019-05-04T06:41:00.405Z,97.55
2019-05-04T06:41:40.780Z,96.41
2019-05-04T06:42:21.764Z,96.79
2019-05-04T06:43:55.465Z,96.5
2019-05-04T06:44:28.508Z,96.89
2019-05-04T06:45:14.262Z,94.79
2019-05-04T06:45:49.293Z,94.98
2019-05-04T06:46:30.839Z,96.41
2019-05-04T06:47:13.613Z,95.46
2019-05-04T06:47:55.628Z,96.69
2019-05-04T06:48:35.620Z,98.03
2019-05-04T06:49:14.943Z,97.36
2019-05-04T06:49:56.717Z,96.22
2019-05-04T06:50:38.369Z,97.17
2019-05-04T06:51:25.040Z,95.56
2019-05-04T06:52:05.485Z,94.6
2019-05-04T06:52:46.913Z,94.98
2019-05-04T06:53:34.806Z,95.84
2019-05-04T06:54:11.870Z,94.22
2019-05-04T06:54:57.007Z,94.42
2019-05-04T06:55:39.078Z,95.84
2019-05-04T06:56:26.305Z,96.22
2019-05-04T06:57:04.665Z,95.17
2019-05-04T06:58:04.041Z,95.17
2019-05-04T06:58:41.694Z,95.08
2019-05-04T06:59:25.351Z,94.7
2019-05-04T07:00:15.750Z,95.08
2019-05-04T07:00:55.785Z,95.84
2019-05-04T07:01:36.525Z,96.03
2019-05-04T07:02:17.763Z,96.12
2019-05-04T07:03:44.256Z,96.98
2019-05-04T07:04:29.467Z,95.56
2019-05-04T07:05:11.270Z,94.32
2019-05-04T07:05:55.404Z,93.65
2019-05-04T07:06:39.257Z,93.08
2019-05-04T07:07:21.858Z,93.75
2019-05-04T07:08:08.436Z,94.42
2019-05-04T07:08:45.908Z,94.98
2019-05-04T07:09:28.735Z,94.7
2019-05-04T07:10:08.744Z,94.42
2019-05-04T07:11:08.964Z,95.08
2019-05-04T07:11:39.549Z,94.84
2019-05-04T07:12:28.718Z,94.08
2019-05-04T07:13:08.932Z,96.08
2019-05-04T07:13:55.607Z,95.98
2019-05-04T07:14:39.191Z,94.56
2019-05-04T07:15:18.798Z,93.32
2019-05-04T07:15:59.482Z,92.65
2019-05-04T07:16:40.982Z,92.36
2019-05-04T07:20:00.639Z,91.61
2019-05-04T07:20:41.573Z,91.22
2019-05-04T07:21:23.716Z,91.03
2019-05-04T07:22:01.632Z,91.89
2019-05-04T07:22:42.056Z,92.08
2019-05-04T07:23:24.597Z,92.51
2019-05-04T07:24:44.300Z,92.03
2019-05-04T07:25:24.194Z,90.99
2019-05-04T07:26:04.892Z,90.13
2019-05-04T07:27:24.937Z,89.75
2019-05-04T07:28:05.305Z,90.51
2019-05-04T07:28:45.727Z,90.61
2019-05-04T07:29:26.124Z,89.47
2019-05-04T07:30:06.506Z,89.65
2019-05-04T07:30:48.843Z,88.56
2019-05-04T07:31:29.239Z,88.56
2019-05-04T07:32:09.909Z,87.79
2019-05-04T07:32:50.231Z,87.98
2019-05-04T07:33:30.618Z,86.46
2019-05-04T07:34:11.344Z,87.51
2019-05-04T07:34:51.954Z,87.89
2019-05-04T07:35:34.731Z,88.08
2019-05-04T07:36:14.446Z,88.18
2019-05-04T07:36:55.002Z,88.46
2019-05-04T07:37:43.773Z,87.32
2019-05-04T07:38:16.806Z,86.84
2019-05-04T07:39:04.692Z,87.6
2019-05-04T07:39:42.277Z,87.6
2019-05-04T07:40:25.418Z,87.51
2019-05-04T07:41:09.366Z,86.55
2019-05-04T07:41:47.897Z,86.69
2019-05-04T07:42:29.283Z,85.27
2019-05-04T07:43:40.818Z,85.84
2019-05-04T07:44:21.230Z,85.64
2019-05-04T07:45:01.567Z,85.08
2019-05-04T07:46:22.349Z,84.22
2019-05-04T07:47:06.431Z,83.84
2019-05-04T07:47:48.563Z,84.03
2019-05-04T07:48:29.830Z,83.93
2019-05-04T07:49:10.218Z,84.22
2019-05-04T07:49:50.632Z,83.84
2019-05-04T07:50:31.050Z,83.88
2019-05-04T07:51:11.526Z,83.74
2019-05-04T07:51:53.373Z,83.5
2019-05-04T07:52:35.172Z,83.4
2019-05-04T07:53:18.394Z,82.54
2019-05-04T07:53:58.760Z,83.36
2019-05-04T07:54:39.181Z,83.4
2019-05-04T07:55:19.617Z,83.88
2019-05-04T07:55:59.986Z,83.88
2019-05-04T07:56:44.873Z,83.31
2019-05-04T07:57:24.616Z,83.69
2019-05-04T07:58:05.362Z,83.12
2019-05-04T07:58:46.771Z,82.45
2019-05-04T07:59:25.494Z,81.97
2019-05-04T08:00:06.085Z,83.31
2019-05-04T08:00:45.875Z,83.31
2019-05-04T08:01:28.600Z,83.12
2019-05-04T08:02:08.433Z,82.45
2019-05-04T08:02:49.043Z,81.4
2019-05-04T08:03:29.376Z,81.97
2019-05-04T08:04:09.721Z,81.4
2019-05-04T08:04:49.884Z,81.78
2019-05-04T08:05:39.632Z,83.21
2019-05-04T08:06:15.555Z,82.54
2019-05-04T08:06:57.274Z,80.83
2019-05-04T08:07:35.994Z,80.26
2019-05-04T08:08:16.146Z,81.21
2019-05-04T08:08:57.755Z,81.68
2019-05-04T08:09:35.170Z,81.68
2019-05-04T08:10:15.495Z,81.4
2019-05-04T08:11:47.284Z,80.77
2019-05-04T08:12:15.356Z,80.68
2019-05-04T08:12:57.635Z,80.39
2019-05-04T08:13:36.124Z,79.82
2019-05-04T08:14:16.511Z,78.96
2019-05-04T08:15:08.972Z,78.86
2019-05-04T08:15:39.050Z,79.06
2019-05-04T08:16:19.301Z,77.44
2019-05-04T08:16:59.583Z,77.25
2019-05-04T08:17:38.874Z,78.39
2019-05-04T08:18:20.930Z,77.62
2019-05-04T08:19:40.724Z,77.82
2019-05-04T08:20:21.215Z,77.47
2019-05-04T08:21:02.434Z,76.57
2019-05-04T08:22:26.869Z,76.23
2019-05-04T08:23:07.332Z,75.81
2019-05-04T08:23:48.277Z,76.29
2019-05-04T08:24:31.066Z,77.38
2019-05-04T08:25:11.070Z,77.38
2019-05-04T08:25:50.422Z,76.46
2019-05-04T08:26:30.021Z,74.93
2019-05-04T08:27:51.874Z,73.07
2019-05-04T08:28:32.730Z,73.07
2019-05-04T08:29:15.864Z,72.49
2019-05-04T08:29:59.405Z,71.76
2019-05-04T08:30:40.074Z,70.9
2019-05-04T08:31:24.353Z,70.71
2019-05-04T08:32:05.635Z,69.76
2019-05-04T08:32:45.754Z,69.79
2019-05-04T08:33:25.536Z,68.64
2019-05-04T08:34:04.770Z,68.74
2019-05-04T08:34:45.232Z,67.78
2019-05-04T08:35:26.272Z,67.88
2019-05-04T08:36:06.935Z,68.16
2019-05-04T08:36:51.747Z,66.47
2019-05-04T08:37:31.963Z,66.86
2019-05-04T08:38:11.369Z,66.96
2019-05-04T08:38:51.721Z,66.99
2019-05-04T08:39:32.067Z,66.51
2019-05-04T08:40:12.443Z,64.98
2019-05-04T08:40:54.392Z,65.2
2019-05-04T08:41:40.993Z,63.57
2019-05-04T08:42:24.418Z,62.71
2019-05-04T08:42:57.296Z,62.04
2019-05-04T08:43:39.006Z,62.23
2019-05-04T08:44:19.286Z,62.04
2019-05-04T08:45:00.593Z,61.37
2019-05-04T08:45:40.859Z,61.47
2019-05-04T08:46:24.883Z,62.65
2019-05-04T08:47:05.405Z,62.65
2019-05-04T08:47:49.290Z,61.5
2019-05-04T08:48:29.123Z,61.82
2019-05-04T08:49:06.687Z,60.57
2019-05-04T08:49:47.029Z,58.46
2019-05-04T08:50:27.796Z,58.65
2019-05-04T08:51:08.680Z,58.27
2019-05-04T08:52:01.723Z,57.43
2019-05-04T08:52:29.261Z,58.2
2019-05-04T08:53:09.643Z,57.72
2019-05-04T08:53:50.459Z,57.06
2019-05-04T08:55:10.860Z,56.35
2019-05-04T08:55:51.236Z,57.31
2019-05-04T08:56:32.566Z,57.7
2019-05-04T08:57:14.230Z,57.7
2019-05-04T08:57:55.024Z,56.64
2019-05-04T08:58:35.389Z,56.38
2019-05-04T08:59:18.838Z,56.57
2019-05-04T09:00:44.986Z,56.07
2019-05-04T09:01:24.690Z,56.38
2019-05-04T09:02:07.140Z,57.15
2019-05-04T09:03:26.000Z,56.76
2019-05-04T09:04:21.816Z,55.8
2019-05-04T09:04:49.954Z,55.35
2019-05-04T09:05:32.729Z,54.68
2019-05-04T09:06:12.794Z,54.01
2019-05-04T09:06:59.534Z,53.91
2019-05-04T09:07:30.193Z,53.91
2019-05-04T09:08:14.571Z,54.08
2019-05-04T09:08:50.957Z,54.58
2019-05-04T09:09:31.459Z,54.66
2019-05-04T09:10:11.832Z,54.46
2019-05-04T09:11:06.219Z,54.56
2019-05-04T09:11:35.277Z,55.04
2019-05-04T09:12:19.570Z,55.33
2019-05-04T09:12:58.801Z,54.94
2019-05-04T09:13:45.744Z,55.13
2019-05-04T09:14:29.458Z,55.13
2019-05-04T09:15:04.954Z,55.23
2019-05-04T09:15:41.121Z,54.17
2019-05-04T09:16:21.444Z,54.94
2019-05-04T09:17:04.760Z,54.58
2019-05-04T09:17:45.361Z,54.21
2019-05-04T09:18:29.297Z,54.78
2019-05-04T09:19:09.582Z,54.21
2019-05-04T09:19:48.991Z,53.24
2019-05-04T09:21:10.299Z,53.34
2019-05-04T09:21:50.321Z,53.15
2019-05-04T09:22:31.679Z,52.07
2019-05-04T09:23:54.699Z,53.41
2019-05-04T09:24:38.860Z,54.27
2019-05-04T09:25:19.619Z,53.99
2019-05-04T09:25:57.189Z,52.91
2019-05-04T09:26:36.267Z,53.19
2019-05-04T09:27:20.016Z,54.15
2019-05-04T09:27:59.842Z,54.22
2019-05-04T09:28:43.416Z,54.6
2019-05-04T09:29:22.615Z,54.22
2019-05-04T09:30:04.439Z,54.89
2019-05-04T09:31:21.784Z,54.89
2019-05-04T09:32:02.238Z,54
2019-05-04T09:32:44.771Z,55.15
2019-05-04T09:34:07.131Z,55.05
2019-05-04T09:34:47.359Z,54.83
2019-05-04T09:35:27.788Z,54.83
2019-05-04T09:36:08.998Z,55.02
2019-05-04T09:36:48.968Z,55.67
2019-05-04T09:37:29.342Z,56.75
2019-05-04T09:38:21.295Z,56.82
2019-05-04T09:38:52.210Z,57.1
2019-05-04T09:39:34.632Z,58.34
2019-05-04T09:40:14.786Z,57.2
2019-05-04T09:41:34.654Z,57.04
2019-05-04T09:42:17.435Z,57.61
2019-05-04T09:42:55.431Z,56.56
2019-05-04T09:43:40.884Z,56.59
2019-05-04T09:44:16.664Z,56.1
2019-05-04T09:44:58.935Z,56.32
2019-05-04T09:45:39.986Z,55.75
2019-05-04T09:46:20.404Z,54.53
2019-05-04T09:47:00.803Z,53.28
2019-05-04T09:47:41.187Z,51.97
2019-05-04T09:48:21.626Z,52.16
2019-05-04T09:49:02.051Z,51.2
2019-05-04T09:49:42.384Z,51.14
2019-05-04T09:50:24.679Z,49.69
2019-05-04T09:51:45.391Z,48.93
2019-05-04T09:52:24.724Z,49.98
2019-05-04T09:53:15.046Z,49.69
2019-05-04T09:53:45.079Z,49.79
2019-05-04T09:54:25.411Z,50.84
2019-05-04T09:55:05.888Z,50.82
2019-05-04T09:55:46.253Z,50.34
2019-05-04T09:56:26.617Z,49.1
2019-05-04T09:57:07.025Z,50.63
2019-05-04T09:57:48.170Z,50.89
2019-05-04T09:58:30.080Z,51.85
2019-05-04T09:59:08.867Z,52.52
2019-05-04T09:59:55.167Z,52.78
2019-05-04T10:00:35.177Z,53.48
2019-05-04T10:02:02.011Z,53.83
2019-05-04T10:02:35.239Z,53.74
2019-05-04T10:03:15.606Z,54.12
2019-05-04T10:03:57.900Z,54.5
2019-05-04T10:04:39.513Z,54.53
2019-05-04T10:05:25.239Z,53
2019-05-04T10:06:04.987Z,52.23
2019-05-04T10:06:44.622Z,52.42
2019-05-04T10:07:25.268Z,53.19
2019-05-04T10:08:04.274Z,53.12
2019-05-04T10:09:25.098Z,50.73
2019-05-04T10:10:05.087Z,50.92
2019-05-04T10:10:45.560Z,50.73
2019-05-04T10:11:27.512Z,50.24
2019-05-04T10:12:07.563Z,49.96
2019-05-04T10:12:50.411Z,50.15
2019-05-04T10:13:28.376Z,49.96
2019-05-04T10:14:08.987Z,49.29
2019-05-04T10:14:49.407Z,49.02
2019-05-04T10:15:30.194Z,48.16
2019-05-04T10:16:10.266Z,48.07
2019-05-04T10:16:50.902Z,47.99
2019-05-04T10:17:31.054Z,46.55
2019-05-04T10:18:11.653Z,45.68
2019-05-04T10:18:52.128Z,45.32
2019-05-04T10:19:32.553Z,45.52
2019-05-04T10:20:14.321Z,45.14
2019-05-04T10:20:53.274Z,43.02
2019-05-04T10:21:34.192Z,41.29
2019-05-04T10:22:55.040Z,42.93
2019-05-04T10:23:37.439Z,41.89
2019-05-04T10:24:19.591Z,41.96
2019-05-04T10:25:00.023Z,42.56
2019-05-04T10:25:40.588Z,42.08
2019-05-04T10:26:21.145Z,42.08
2019-05-04T10:27:01.686Z,42.47
2019-05-04T10:28:22.567Z,41.72
2019-05-04T10:29:04.492Z,40.08
2019-05-04T11:07:44.728Z,54.8
2019-05-04T11:08:24.870Z,55.96
2019-05-04T11:09:06.998Z,56.12
2019-05-04T11:09:48.947Z,57.07
2019-05-04T11:10:29.444Z,57.17
2019-05-04T11:11:20.308Z,57.62
2019-05-04T11:11:54.465Z,58.67
2019-05-04T11:13:19.925Z,61.6
2019-05-04T11:14:02.531Z,62.18
2019-05-04T11:14:37.927Z,63
2019-05-04T11:15:19.481Z,63.2
2019-05-04T11:15:59.702Z,63.57
2019-05-04T11:16:40.035Z,62.81
2019-05-04T11:17:20.435Z,64.62
2019-05-04T11:18:01.711Z,64.72
2019-05-04T11:18:43.795Z,64.25
2019-05-04T11:19:24.434Z,63.86
2019-05-04T11:20:04.805Z,64.34
2019-05-04T11:20:45.330Z,62.43
2019-05-04T11:21:27.314Z,60.52
2019-05-04T11:22:09.401Z,61.95
2019-05-04T11:22:49.837Z,62.34
2019-05-04T11:23:30.298Z,60.71
2019-05-04T11:24:14.223Z,60.14
2019-05-04T11:24:53.106Z,59.22
2019-05-04T11:26:18.583Z,58.45
2019-05-04T11:27:00.543Z,59.02
2019-05-04T11:27:40.737Z,60.55
2019-05-04T11:28:21.131Z,59.98
2019-05-04T11:29:01.509Z,59.15
2019-05-04T11:29:41.981Z,59.37
2019-05-04T11:30:22.486Z,59.18
2019-05-04T11:31:05.425Z,56.79
2019-05-04T11:31:45.431Z,55.76
2019-05-04T11:32:26.014Z,55
2019-05-04T11:33:06.385Z,53.56
2019-05-04T11:33:49.584Z,52.44
2019-05-04T11:34:29.780Z,53.02
2019-05-04T11:35:10.175Z,53.62
2019-05-04T11:35:50.579Z,53.23
2019-05-04T11:36:31.072Z,52.3
2019-05-04T11:37:13.566Z,50.58
2019-05-04T11:37:55.154Z,50.67
2019-05-04T11:39:15.524Z,49.84
2019-05-04T11:39:55.340Z,49.19
2019-05-04T11:40:35.759Z,47.56
2019-05-04T11:41:18.006Z,47.37
2019-05-04T11:41:58.367Z,47.94
2019-05-04T11:42:38.852Z,47.75
2019-05-04T11:43:29.344Z,46.98
2019-05-04T11:43:59.644Z,46.98
2019-05-04T11:44:41.686Z,47.27
2019-05-04T11:45:22.179Z,46.12
2019-05-04T11:46:56.351Z,46.12
2019-05-04T11:47:25.695Z,46.22
2019-05-04T11:48:06.089Z,46.31
2019-05-04T11:48:46.473Z,45.26
2019-05-04T11:49:27.049Z,45.74